BOV weather

Bonito Valle Airport
Mexicali, Baja California, Mexico

Public forecast

Using degrees Celsius for public forecast. Weather courtesy of forecast.io.

METAR (pilot weather report)

Report is more than 2 hours old.

Closest report is General Rodolfo Sánchez Taboada International Airport, 13.5 nm (25.0 km) WNW. Retrieved 2019/08/23 07:44 UTC (5 hours ago):

MMML 230744Z 11005KT 10SM FEW200 29/19 A2968 RMK 8/002

TAF (pilot weather forecast)

Closest forecast is General Rodolfo Sánchez Taboada International Airport, 13.5 nm (25.0 km) WNW. Retrieved 2019/08/23 06:45 UTC (6 hours ago):

TAF MMML 230443Z 2306/2406 13008KT P6SM SCT200 FM231800 15010KT P6SM SKC FM240300 13005KT P6SM SKC